createdAt,value
2024-03-02T00:00:28.510Z,1007.00
2024-03-02T00:01:28.598Z,995.00
2024-03-02T00:02:28.502Z,1005.00
2024-03-02T00:03:28.664Z,1004.00
2024-03-02T00:04:28.665Z,1004.00
2024-03-02T00:05:28.734Z,998.00
2024-03-02T00:06:28.812Z,997.00
2024-03-02T00:07:28.853Z,999.00
2024-03-02T00:08:29.033Z,999.00
2024-03-02T00:09:29.002Z,997.00
2024-03-02T00:10:29.035Z,995.00
2024-03-02T00:11:29.216Z,1001.00
2024-03-02T00:12:29.205Z,996.00
2024-03-02T00:13:29.191Z,987.00
2024-03-02T00:14:29.264Z,1004.00
2024-03-02T00:15:29.392Z,999.00
2024-03-02T00:16:29.463Z,998.00
2024-03-02T00:17:29.492Z,986.00
2024-03-02T00:18:29.573Z,997.00
2024-03-02T00:19:29.623Z,1002.00
2024-03-02T00:20:29.656Z,996.00
2024-03-02T00:21:29.768Z,1001.00
2024-03-02T00:22:29.848Z,997.00
2024-03-02T00:23:29.865Z,997.00
2024-03-02T00:24:30.014Z,1000.00
2024-03-02T00:25:30.029Z,997.00
2024-03-02T00:26:30.095Z,995.00
2024-03-02T00:27:30.181Z,1003.00
2024-03-02T00:28:30.257Z,1008.00
2024-03-02T00:29:30.263Z,991.00
2024-03-02T00:30:30.426Z,998.00
2024-03-02T00:31:30.414Z,990.00
2024-03-02T00:32:30.558Z,1001.00
2024-03-02T00:33:30.596Z,1006.00
2024-03-02T00:34:30.613Z,991.00
2024-03-02T00:35:30.681Z,999.00
2024-03-02T00:36:30.786Z,997.00
2024-03-02T00:37:30.786Z,999.00
2024-03-02T00:38:30.869Z,998.00
2024-03-02T00:39:30.928Z,999.00
2024-03-02T00:40:30.985Z,1001.00
2024-03-02T00:41:31.067Z,997.00
2024-03-02T00:42:31.191Z,996.00
2024-03-02T00:43:31.196Z,993.00
2024-03-02T00:44:31.309Z,994.00
2024-03-02T00:45:31.450Z,1002.00
2024-03-02T00:46:31.411Z,1003.00
2024-03-02T00:47:31.459Z,999.00
2024-03-02T00:48:31.600Z,1002.00
2024-03-02T00:49:31.628Z,990.00
2024-03-02T00:50:31.660Z,995.00
2024-03-02T00:51:31.791Z,999.00
2024-03-02T00:52:31.789Z,999.00
2024-03-02T00:53:31.879Z,994.00
2024-03-02T00:54:31.971Z,987.00
2024-03-02T00:55:32.024Z,992.00
2024-03-02T00:56:32.101Z,990.00
2024-03-02T00:57:32.184Z,992.00
2024-03-02T00:58:32.204Z,994.00
2024-03-02T00:59:32.269Z,990.00
2024-03-02T01:00:32.406Z,988.00
2024-03-02T01:01:32.442Z,991.00
2024-03-02T01:02:32.479Z,993.00
2024-03-02T01:03:32.585Z,997.00
2024-03-02T01:04:32.675Z,994.00
2024-03-02T01:05:32.702Z,995.00
2024-03-02T01:06:32.860Z,989.00
2024-03-02T01:07:32.839Z,992.00
2024-03-02T01:08:32.920Z,993.00
2024-03-02T01:09:33.006Z,996.00
2024-03-02T01:10:33.087Z,987.00
2024-03-02T01:11:33.110Z,988.00
2024-03-02T01:12:33.242Z,990.00
2024-03-02T01:13:33.281Z,993.00
2024-03-02T01:14:33.342Z,990.00
2024-03-02T01:15:33.479Z,995.00
2024-03-02T01:16:33.473Z,987.00
2024-03-02T01:17:33.549Z,995.00
2024-03-02T01:18:33.624Z,1000.00
2024-03-02T01:19:33.709Z,985.00
2024-03-02T01:20:33.737Z,986.00
2024-03-02T01:21:33.831Z,985.00
2024-03-02T01:22:33.895Z,994.00
2024-03-02T01:23:33.973Z,988.00
2024-03-02T01:24:34.065Z,983.00
2024-03-02T01:25:34.130Z,984.00
2024-03-02T01:26:34.181Z,997.00
2024-03-02T01:27:34.269Z,989.00
2024-03-02T01:28:34.288Z,991.00
2024-03-02T01:29:34.386Z,990.00
2024-03-02T01:30:34.550Z,991.00
2024-03-02T01:31:34.556Z,989.00
2024-03-02T01:32:34.580Z,991.00
2024-03-02T01:33:34.690Z,987.00
2024-03-02T01:34:34.696Z,988.00
2024-03-02T01:35:34.821Z,977.00
2024-03-02T01:36:34.906Z,985.00
2024-03-02T01:37:34.886Z,993.00
2024-03-02T01:38:35.000Z,990.00
2024-03-02T01:39:35.026Z,990.00
2024-03-02T01:40:35.096Z,991.00
2024-03-02T01:41:35.139Z,986.00
2024-03-02T01:42:35.239Z,994.00
2024-03-02T01:43:36.965Z,989.00
2024-03-02T01:44:35.312Z,981.00
2024-03-02T01:45:35.294Z,983.00
2024-03-02T01:46:35.286Z,993.00
2024-03-02T01:47:35.265Z,987.00
2024-03-02T01:48:35.378Z,989.00
2024-03-02T01:49:35.325Z,986.00
2024-03-02T01:50:35.275Z,988.00
2024-03-02T01:51:35.344Z,989.00
2024-03-02T01:52:35.291Z,983.00
2024-03-02T01:53:35.281Z,982.00
2024-03-02T01:54:35.320Z,987.00
2024-03-02T01:55:35.288Z,988.00
2024-03-02T01:56:35.314Z,988.00
2024-03-02T01:57:35.353Z,988.00
2024-03-02T01:58:35.319Z,986.00
2024-03-02T01:59:35.301Z,986.00
2024-03-02T02:00:35.353Z,982.00
2024-03-02T02:01:35.324Z,982.00
2024-03-02T02:02:35.298Z,982.00
2024-03-02T02:03:35.380Z,975.00
2024-03-02T02:04:35.287Z,981.00
2024-03-02T02:05:35.291Z,984.00
2024-03-02T02:06:35.330Z,982.00
2024-03-02T02:07:35.303Z,987.00
2024-03-02T02:08:35.362Z,981.00
2024-03-02T02:09:35.372Z,980.00
2024-03-02T02:10:35.354Z,988.00
2024-03-02T02:11:35.350Z,990.00
2024-03-02T02:12:35.364Z,989.00
2024-03-02T02:13:35.338Z,986.00
2024-03-02T02:14:35.318Z,984.00
2024-03-02T02:15:35.374Z,983.00
2024-03-02T02:16:35.345Z,992.00
2024-03-02T02:17:35.345Z,984.00
2024-03-02T02:18:35.418Z,980.00
2024-03-02T02:19:35.370Z,977.00
2024-03-02T02:20:35.318Z,986.00
2024-03-02T02:21:35.444Z,986.00
2024-03-02T02:22:35.467Z,982.00
2024-03-02T02:23:35.512Z,983.00
2024-03-02T02:24:35.612Z,973.00
2024-03-02T02:25:35.655Z,982.00
2024-03-02T02:26:35.761Z,978.00
2024-03-02T02:27:35.842Z,989.00
2024-03-02T02:28:35.841Z,988.00
2024-03-02T02:29:35.867Z,978.00
2024-03-02T02:30:36.024Z,979.00
2024-03-02T02:31:36.030Z,977.00
2024-03-02T02:32:36.115Z,971.00
2024-03-02T02:33:36.228Z,977.00
2024-03-02T02:34:36.219Z,972.00
2024-03-02T02:35:36.319Z,975.00
2024-03-02T02:36:36.368Z,977.00
2024-03-02T02:37:36.390Z,979.00
2024-03-02T02:38:36.425Z,977.00
2024-03-02T02:39:36.520Z,981.00
2024-03-02T02:40:36.554Z,985.00
2024-03-02T02:41:36.630Z,980.00
2024-03-02T02:42:36.682Z,979.00
2024-03-02T02:43:36.743Z,980.00
2024-03-02T02:44:36.841Z,979.00
2024-03-02T02:45:36.931Z,974.00
2024-03-02T02:46:36.956Z,976.00
2024-03-02T02:47:37.112Z,981.00
2024-03-02T02:48:37.126Z,972.00
2024-03-02T02:49:37.187Z,975.00
2024-03-02T02:50:37.264Z,973.00
2024-03-02T02:51:37.327Z,978.00
2024-03-02T02:52:37.415Z,970.00
2024-03-02T02:53:37.470Z,974.00
2024-03-02T02:54:37.504Z,970.00
2024-03-02T02:55:37.572Z,980.00
2024-03-02T02:56:37.656Z,980.00
2024-03-02T02:57:37.779Z,974.00
2024-03-02T02:58:37.753Z,975.00
2024-03-02T02:59:37.841Z,977.00
2024-03-02T03:00:37.923Z,973.00
2024-03-02T03:01:38.009Z,977.00
2024-03-02T03:02:37.970Z,979.00
2024-03-02T03:03:38.128Z,976.00
2024-03-02T03:04:38.076Z,976.00
2024-03-02T03:05:38.146Z,971.00
2024-03-02T03:06:38.197Z,977.00
2024-03-02T03:07:38.175Z,975.00
2024-03-02T03:08:38.254Z,978.00
2024-03-02T03:09:38.287Z,975.00
2024-03-02T03:10:38.299Z,974.00
2024-03-02T03:11:38.380Z,972.00
2024-03-02T03:12:38.387Z,972.00
2024-03-02T03:13:38.392Z,968.00
2024-03-02T03:14:38.423Z,970.00
2024-03-02T03:15:38.505Z,968.00
2024-03-02T03:16:38.537Z,971.00
2024-03-02T03:17:38.722Z,973.00
2024-03-02T03:18:38.633Z,974.00
2024-03-02T03:19:38.696Z,978.00
2024-03-02T03:20:38.661Z,966.00
2024-03-02T03:21:38.766Z,970.00
2024-03-02T03:22:38.786Z,969.00
2024-03-02T03:23:38.840Z,970.00
2024-03-02T03:24:38.842Z,970.00
2024-03-02T03:25:38.900Z,974.00
2024-03-02T03:26:38.908Z,967.00
2024-03-02T03:27:39.064Z,971.00
2024-03-02T03:28:38.997Z,964.00
2024-03-02T03:29:39.097Z,973.00
2024-03-02T03:30:39.135Z,967.00
2024-03-02T03:31:39.141Z,973.00
2024-03-02T03:32:39.199Z,968.00
2024-03-02T03:33:39.300Z,970.00
2024-03-02T03:34:39.330Z,966.00
2024-03-02T03:35:39.305Z,974.00
2024-03-02T03:36:39.388Z,970.00
2024-03-02T03:37:39.433Z,967.00
2024-03-02T03:38:39.479Z,980.00
2024-03-02T03:39:39.530Z,968.00
2024-03-02T03:40:39.558Z,975.00
2024-03-02T03:41:39.631Z,961.00
2024-03-02T03:42:39.638Z,964.00
2024-03-02T03:43:39.670Z,978.00
2024-03-02T03:44:39.713Z,964.00
2024-03-02T03:45:39.808Z,964.00
2024-03-02T03:46:39.827Z,969.00
2024-03-02T03:47:39.948Z,960.00
2024-03-02T03:48:39.997Z,961.00
2024-03-02T03:49:39.987Z,963.00
2024-03-02T03:50:40.047Z,966.00
2024-03-02T03:51:40.115Z,959.00
2024-03-02T03:52:40.149Z,959.00
2024-03-02T03:53:40.144Z,963.00
2024-03-02T03:54:40.239Z,966.00
2024-03-02T03:55:40.264Z,965.00
2024-03-02T03:56:40.305Z,969.00
2024-03-02T03:57:40.379Z,969.00
2024-03-02T03:58:40.392Z,967.00
2024-03-02T03:59:40.475Z,969.00
2024-03-02T04:00:40.547Z,969.00
2024-03-02T04:01:40.607Z,966.00
2024-03-02T04:02:40.643Z,969.00
2024-03-02T04:03:40.646Z,962.00
2024-03-02T04:04:40.606Z,969.00
2024-03-02T04:05:40.613Z,956.00
2024-03-02T04:06:40.650Z,962.00
2024-03-02T04:07:40.665Z,965.00
2024-03-02T04:08:40.728Z,970.00
2024-03-02T04:09:40.848Z,970.00
2024-03-02T04:10:40.776Z,962.00
2024-03-02T04:11:40.831Z,969.00
2024-03-02T04:12:40.940Z,959.00
2024-03-02T04:13:40.909Z,965.00
2024-03-02T04:14:40.965Z,961.00
2024-03-02T04:15:41.076Z,960.00
2024-03-02T04:16:48.233Z,600.00
2024-03-02T04:17:48.297Z,600.00
2024-03-02T04:18:48.323Z,600.00
2024-03-02T04:19:48.244Z,600.00
2024-03-02T04:20:50.341Z,600.00
2024-03-02T04:21:48.241Z,604.00
2024-03-02T04:22:48.246Z,602.00
2024-03-02T04:23:48.239Z,601.00
2024-03-02T04:24:48.250Z,604.00
2024-03-02T04:25:48.224Z,604.00
2024-03-02T04:26:48.280Z,601.00
2024-03-02T04:27:48.401Z,603.00
2024-03-02T04:28:48.286Z,605.00
2024-03-02T04:29:48.234Z,605.00
2024-03-02T04:30:48.303Z,603.00
2024-03-02T04:31:55.491Z,600.00
2024-03-02T04:32:55.538Z,600.00
2024-03-02T04:33:55.522Z,600.00
2024-03-02T04:34:55.452Z,600.00
2024-03-02T04:35:55.521Z,600.00
2024-03-02T04:36:55.541Z,600.00
2024-03-02T04:37:55.488Z,604.00
2024-03-02T04:38:55.482Z,602.00
2024-03-02T04:39:55.533Z,604.00
2024-03-02T04:40:55.479Z,600.00
2024-03-02T04:41:55.482Z,606.00
2024-03-02T04:42:55.582Z,605.00
2024-03-02T04:43:55.493Z,603.00
2024-03-02T04:44:55.503Z,603.00
2024-03-02T04:45:55.504Z,602.00
2024-03-02T04:46:55.469Z,603.00
2024-03-02T04:47:55.476Z,606.00
2024-03-02T04:48:55.578Z,600.00
2024-03-02T04:49:55.479Z,601.00
2024-03-02T04:50:55.503Z,601.00
2024-03-02T04:51:55.552Z,605.00
2024-03-02T04:52:55.510Z,602.00
2024-03-02T04:53:55.517Z,609.00
2024-03-02T04:54:55.513Z,603.00
2024-03-02T04:55:55.488Z,608.00
2024-03-02T04:56:55.475Z,606.00
2024-03-02T04:57:55.607Z,600.00
2024-03-02T04:58:55.510Z,605.00
2024-03-02T04:59:55.503Z,603.00
2024-03-02T05:00:55.583Z,607.00
2024-03-02T05:01:55.599Z,607.00
2024-03-02T05:02:55.514Z,606.00
2024-03-02T05:03:55.690Z,604.00
2024-03-02T05:04:55.512Z,604.00
2024-03-02T05:05:55.520Z,600.00
2024-03-02T05:06:55.573Z,601.00
2024-03-02T05:07:55.499Z,603.00
2024-03-02T05:08:55.526Z,606.00
2024-03-02T05:09:55.766Z,603.00
2024-03-02T05:10:55.594Z,603.00
2024-03-02T05:11:55.515Z,603.00
2024-03-02T05:12:55.659Z,608.00
2024-03-02T05:13:55.489Z,604.00
2024-03-02T05:14:55.513Z,605.00
2024-03-02T05:15:56.170Z,606.00
2024-03-02T05:16:55.513Z,605.00
2024-03-02T05:17:55.604Z,604.00
2024-03-02T05:18:55.629Z,608.00
2024-03-02T05:20:16.521Z,604.00
2024-03-02T05:20:55.547Z,605.00
2024-03-02T05:21:55.589Z,606.00
2024-03-02T05:22:55.517Z,607.00
2024-03-02T05:23:55.485Z,611.00
2024-03-02T05:24:55.639Z,614.00
2024-03-02T05:25:55.528Z,614.00
2024-03-02T05:26:55.533Z,614.00
2024-03-02T05:27:55.611Z,610.00
2024-03-02T05:28:55.546Z,609.00
2024-03-02T05:29:55.546Z,610.00
2024-03-02T05:30:55.570Z,610.00
2024-03-02T05:31:55.512Z,607.00
2024-03-02T05:32:55.546Z,612.00
2024-03-02T05:33:57.901Z,612.00
2024-03-02T05:34:55.538Z,608.00
2024-03-02T05:35:55.530Z,611.00
2024-03-02T05:36:55.667Z,611.00
2024-03-02T05:37:55.513Z,606.00
2024-03-02T05:38:55.551Z,610.00
2024-03-02T05:39:55.620Z,612.00
2024-03-02T05:40:55.531Z,607.00
2024-03-02T05:41:55.506Z,609.00
2024-03-02T05:42:55.541Z,607.00
2024-03-02T05:43:55.537Z,609.00
2024-03-02T05:44:55.537Z,607.00
2024-03-02T05:45:55.565Z,606.00
2024-03-02T05:46:55.498Z,606.00
2024-03-02T05:47:55.569Z,605.00
2024-03-02T05:48:55.595Z,608.00
2024-03-02T05:49:55.518Z,606.00
2024-03-02T05:50:55.548Z,607.00
2024-03-02T05:51:55.567Z,606.00
2024-03-02T05:52:55.562Z,606.00
2024-03-02T05:53:55.526Z,608.00
2024-03-02T05:54:55.627Z,608.00
2024-03-02T05:55:55.619Z,607.00
2024-03-02T05:56:55.544Z,606.00
2024-03-02T05:57:55.727Z,604.00
2024-03-02T05:58:55.552Z,607.00
2024-03-02T05:59:55.571Z,606.00
2024-03-02T06:00:55.673Z,611.00
2024-03-02T06:01:55.619Z,606.00
2024-03-02T06:02:55.528Z,610.00
2024-03-02T06:03:55.639Z,606.00
2024-03-02T06:04:55.563Z,606.00
2024-03-02T06:05:55.569Z,604.00
2024-03-02T06:06:55.688Z,609.00
2024-03-02T06:07:56.072Z,605.00
2024-03-02T06:08:55.537Z,606.00
2024-03-02T06:09:55.634Z,605.00
2024-03-02T06:10:55.568Z,611.00
2024-03-02T06:11:55.581Z,610.00
2024-03-02T06:12:55.734Z,607.00
2024-03-02T06:13:55.586Z,607.00
2024-03-02T06:14:55.552Z,605.00
2024-03-02T06:15:55.680Z,608.00
2024-03-02T06:16:55.561Z,608.00
2024-03-02T06:17:55.564Z,609.00
2024-03-02T06:18:55.604Z,608.00
2024-03-02T06:19:55.556Z,605.00
2024-03-02T06:20:55.600Z,607.00
2024-03-02T06:21:55.677Z,609.00
2024-03-02T06:22:55.554Z,604.00
2024-03-02T06:23:55.564Z,606.00
2024-03-02T06:24:55.634Z,609.00
2024-03-02T06:25:55.578Z,606.00
2024-03-02T06:26:55.558Z,606.00
2024-03-02T06:27:55.546Z,609.00
2024-03-02T06:28:55.594Z,607.00
2024-03-02T06:29:55.587Z,609.00
2024-03-02T06:30:55.642Z,605.00
2024-03-02T06:31:55.596Z,607.00
2024-03-02T06:32:55.633Z,607.00
2024-03-02T06:33:55.649Z,604.00
2024-03-02T06:34:55.593Z,607.00
2024-03-02T06:35:55.597Z,604.00
2024-03-02T06:36:55.687Z,607.00
2024-03-02T06:37:55.604Z,607.00
2024-03-02T06:38:55.589Z,608.00
2024-03-02T06:39:55.745Z,606.00
2024-03-02T06:40:55.577Z,605.00
2024-03-02T06:41:55.558Z,605.00
2024-03-02T06:42:55.809Z,605.00
2024-03-02T06:43:55.615Z,605.00
2024-03-02T06:44:55.603Z,605.00
2024-03-02T06:45:55.701Z,605.00
2024-03-02T06:46:55.613Z,606.00
2024-03-02T06:47:55.657Z,606.00
2024-03-02T06:48:55.756Z,604.00
2024-03-02T06:49:55.628Z,603.00
2024-03-02T06:50:55.646Z,603.00
2024-03-02T06:51:55.778Z,602.00
2024-03-02T06:52:55.577Z,604.00
2024-03-02T06:53:55.624Z,604.00
2024-03-02T06:54:55.675Z,602.00
2024-03-02T06:55:55.609Z,601.00
2024-03-02T06:56:55.665Z,601.00
2024-03-02T06:57:55.803Z,603.00
2024-03-02T06:58:55.780Z,604.00
2024-03-02T06:59:55.912Z,603.00
2024-03-02T07:00:55.967Z,605.00
2024-03-02T07:01:56.046Z,603.00
2024-03-02T07:02:56.063Z,605.00
2024-03-02T07:03:56.170Z,604.00
2024-03-02T07:04:56.209Z,600.00
2024-03-02T07:05:56.280Z,602.00
2024-03-02T07:06:56.405Z,602.00
2024-03-02T07:07:56.413Z,604.00
2024-03-02T07:08:56.496Z,603.00
2024-03-02T07:09:56.601Z,603.00
2024-03-02T07:10:56.661Z,602.00
2024-03-02T07:11:56.723Z,600.00
2024-03-02T07:12:56.827Z,605.00
2024-03-02T07:13:56.845Z,602.00
2024-03-02T07:14:56.903Z,600.00
2024-03-02T07:15:57.045Z,602.00
2024-03-02T07:16:57.013Z,602.00
2024-03-02T07:17:57.126Z,602.00
2024-03-02T07:18:57.240Z,602.00
2024-03-02T07:19:57.299Z,602.00
2024-03-02T07:20:57.272Z,602.00
2024-03-02T07:21:57.481Z,604.00
2024-03-02T07:22:57.405Z,603.00
2024-03-02T07:23:57.483Z,602.00
2024-03-02T07:24:57.602Z,604.00
2024-03-02T07:26:57.600Z,604.00
2024-03-02T07:27:57.627Z,604.00
2024-03-02T07:28:57.619Z,601.00
2024-03-02T07:29:57.624Z,602.00
2024-03-02T07:30:57.685Z,603.00
2024-03-02T07:31:57.600Z,602.00
2024-03-02T07:32:57.656Z,604.00
2024-03-02T07:33:57.720Z,601.00
2024-03-02T07:34:57.621Z,604.00
2024-03-02T07:35:57.616Z,601.00
2024-03-02T07:36:57.674Z,601.00
2024-03-02T07:37:57.627Z,605.00
2024-03-02T07:38:57.618Z,601.00
2024-03-02T07:39:57.702Z,601.00
2024-03-02T07:40:57.654Z,603.00
2024-03-02T07:41:57.632Z,603.00
2024-03-02T07:42:57.707Z,603.00
2024-03-02T07:43:57.617Z,604.00
2024-03-02T07:44:57.688Z,603.00
2024-03-02T07:45:57.722Z,603.00
2024-03-02T07:46:58.166Z,601.00
2024-03-02T07:48:57.630Z,602.00
2024-03-02T07:49:57.605Z,601.00
2024-03-02T07:50:57.652Z,603.00
2024-03-02T07:51:57.701Z,601.00
2024-03-02T07:52:57.681Z,600.00
2024-03-02T07:53:57.636Z,602.00
2024-03-02T07:54:57.687Z,601.00
2024-03-02T07:55:57.644Z,603.00
2024-03-02T07:56:57.626Z,602.00
2024-03-02T07:57:57.692Z,602.00
2024-03-02T07:58:57.670Z,602.00
2024-03-02T07:59:57.624Z,606.00
2024-03-02T08:00:57.659Z,606.00
2024-03-02T08:01:57.727Z,608.00
2024-03-02T08:02:57.661Z,607.00
2024-03-02T08:03:57.655Z,605.00
2024-03-02T08:04:57.660Z,606.00
2024-03-02T08:05:57.653Z,600.00
2024-03-02T08:06:57.679Z,604.00
2024-03-02T08:07:57.658Z,607.00
2024-03-02T08:08:57.677Z,603.00
2024-03-02T08:09:57.740Z,604.00
2024-03-02T08:10:58.973Z,607.00
2024-03-02T08:11:57.861Z,615.00
2024-03-02T08:12:57.905Z,610.00
2024-03-02T08:13:57.873Z,601.00
2024-03-02T08:14:57.882Z,608.00
2024-03-02T08:15:57.926Z,611.00
2024-03-02T08:16:57.898Z,610.00
2024-03-02T08:17:57.955Z,606.00
2024-03-02T08:18:57.982Z,608.00
2024-03-02T08:19:58.013Z,607.00
2024-03-02T08:20:58.073Z,604.00
2024-03-02T08:21:58.115Z,608.00
2024-03-02T08:22:58.149Z,606.00
2024-03-02T08:23:58.193Z,610.00
2024-03-02T08:25:20.829Z,607.00
2024-03-02T08:25:58.258Z,607.00
2024-03-02T08:26:58.263Z,609.00
2024-03-02T08:28:58.288Z,613.00
2024-03-02T08:29:58.273Z,616.00
2024-03-02T08:30:58.404Z,616.00
2024-03-02T08:31:58.292Z,617.00
2024-03-02T08:32:58.329Z,613.00
2024-03-02T08:33:58.361Z,613.00
2024-03-02T08:34:58.271Z,614.00
2024-03-02T08:35:58.269Z,614.00
2024-03-02T08:36:58.380Z,614.00
2024-03-02T08:37:58.310Z,615.00
2024-03-02T08:38:58.294Z,613.00
2024-03-02T08:39:58.522Z,615.00
2024-03-02T08:40:58.317Z,611.00
2024-03-02T08:41:58.278Z,614.00
2024-03-02T08:42:58.329Z,614.00
2024-03-02T08:43:58.299Z,611.00
2024-03-02T08:44:58.301Z,611.00
2024-03-02T08:45:58.351Z,610.00
2024-03-02T08:46:58.305Z,608.00
2024-03-02T08:47:58.331Z,612.00
2024-03-02T08:48:58.367Z,609.00
2024-03-02T08:50:01.564Z,611.00
2024-03-02T08:50:58.365Z,611.00
2024-03-02T08:51:58.429Z,612.00
2024-03-02T08:52:58.342Z,612.00
2024-03-02T08:53:58.335Z,613.00
2024-03-02T08:54:58.359Z,610.00
2024-03-02T08:56:01.023Z,612.00
2024-03-02T08:56:58.363Z,612.00
2024-03-02T08:57:58.398Z,612.00
2024-03-02T08:58:58.357Z,611.00
2024-03-02T08:59:58.372Z,613.00
2024-03-02T09:00:58.399Z,611.00
2024-03-02T09:01:58.381Z,613.00
2024-03-02T09:02:58.371Z,613.00
2024-03-02T09:03:58.415Z,612.00
2024-03-02T09:04:58.367Z,614.00
2024-03-02T09:05:58.385Z,611.00
2024-03-02T09:06:58.459Z,611.00
2024-03-02T09:07:58.388Z,609.00
2024-03-02T09:08:58.335Z,609.00
2024-03-02T09:09:58.413Z,613.00
2024-03-02T09:10:58.417Z,613.00
2024-03-02T09:11:58.406Z,610.00
2024-03-02T09:12:58.411Z,612.00
2024-03-02T09:13:58.390Z,610.00
2024-03-02T09:14:58.388Z,609.00
2024-03-02T09:15:58.418Z,609.00
2024-03-02T09:16:58.396Z,611.00
2024-03-02T09:17:58.447Z,608.00
2024-03-02T09:18:58.426Z,612.00
2024-03-02T09:19:58.393Z,610.00
2024-03-02T09:20:58.372Z,609.00
2024-03-02T09:21:58.456Z,608.00
2024-03-02T09:22:58.408Z,610.00
2024-03-02T09:23:58.431Z,606.00
2024-03-02T09:24:58.468Z,607.00
2024-03-02T09:25:58.409Z,606.00
2024-03-02T09:26:58.460Z,606.00
2024-03-02T09:27:58.542Z,606.00
2024-03-02T09:28:58.568Z,604.00
2024-03-02T09:29:58.575Z,605.00
2024-03-02T09:31:00.837Z,602.00
2024-03-02T09:31:58.754Z,609.00
2024-03-02T09:33:58.891Z,611.00
2024-03-02T09:34:58.828Z,611.00
2024-03-02T09:35:58.829Z,607.00
2024-03-02T09:36:58.921Z,606.00
2024-03-02T09:37:58.840Z,608.00
2024-03-02T09:38:58.798Z,608.00
2024-03-02T09:39:58.892Z,608.00
2024-03-02T09:40:58.821Z,612.00
2024-03-02T09:41:58.841Z,610.00
2024-03-02T09:42:58.884Z,612.00
2024-03-02T09:43:58.848Z,609.00
2024-03-02T09:44:58.847Z,607.00
2024-03-02T09:45:58.828Z,608.00
2024-03-02T09:46:58.808Z,610.00
2024-03-02T09:47:58.844Z,609.00
2024-03-02T09:48:58.944Z,610.00
2024-03-02T09:49:58.835Z,612.00
2024-03-02T09:50:58.837Z,607.00
2024-03-02T09:51:58.889Z,613.00
2024-03-02T09:52:58.851Z,611.00
2024-03-02T09:54:09.413Z,609.00
2024-03-02T09:54:59.873Z,609.00
2024-03-02T09:55:58.808Z,610.00
2024-03-02T09:56:58.835Z,610.00
2024-03-02T09:57:58.849Z,610.00
2024-03-02T09:58:58.875Z,616.00
2024-03-02T09:59:58.840Z,614.00
2024-03-02T10:00:58.946Z,614.00
2024-03-02T10:01:58.851Z,609.00
2024-03-02T10:02:58.847Z,612.00
2024-03-02T10:03:58.883Z,610.00
2024-03-02T10:04:58.821Z,610.00
2024-03-02T10:05:58.816Z,609.00
2024-03-02T10:06:58.938Z,609.00
2024-03-02T10:07:58.859Z,613.00
2024-03-02T10:08:58.841Z,611.00
2024-03-02T10:09:58.942Z,609.00
2024-03-02T10:10:58.852Z,610.00
2024-03-02T10:11:58.879Z,609.00
2024-03-02T10:12:58.953Z,610.00
2024-03-02T10:13:58.848Z,611.00
2024-03-02T10:14:58.892Z,614.00
2024-03-02T10:15:58.971Z,614.00
2024-03-02T10:16:58.901Z,610.00
2024-03-02T10:17:58.936Z,609.00
2024-03-02T10:19:58.962Z,609.00
2024-03-02T10:20:58.937Z,610.00
2024-03-02T10:22:00.412Z,611.00
2024-03-02T10:22:58.951Z,613.00
2024-03-02T10:23:58.960Z,612.00
2024-03-02T10:24:59.789Z,612.00
2024-03-02T10:25:59.053Z,612.00
2024-03-02T10:26:58.964Z,613.00
2024-03-02T10:27:59.115Z,613.00
2024-03-02T10:28:58.980Z,610.00
2024-03-02T10:29:59.061Z,609.00
2024-03-02T10:30:59.081Z,611.00
2024-03-02T10:31:59.018Z,611.00
2024-03-02T10:32:59.088Z,614.00
2024-03-02T10:33:59.115Z,611.00
2024-03-02T10:34:59.081Z,612.00
2024-03-02T10:35:59.100Z,609.00
2024-03-02T10:36:59.235Z,614.00
2024-03-02T10:37:59.100Z,609.00
2024-03-02T10:38:59.128Z,612.00
2024-03-02T10:39:59.233Z,615.00
2024-03-02T10:40:59.246Z,609.00
2024-03-02T10:41:59.288Z,613.00
2024-03-02T10:42:59.381Z,612.00
2024-03-02T10:43:59.401Z,610.00
2024-03-02T10:44:59.480Z,610.00
2024-03-02T10:45:59.621Z,613.00
2024-03-02T10:46:59.641Z,613.00
2024-03-02T10:47:59.680Z,610.00
2024-03-02T10:48:59.885Z,615.00
2024-03-02T10:49:59.778Z,615.00
2024-03-02T10:50:59.816Z,613.00
2024-03-02T10:52:00.118Z,612.00
2024-03-02T10:52:59.928Z,612.00
2024-03-02T10:53:59.974Z,612.00
2024-03-02T10:55:00.136Z,616.00
2024-03-02T10:56:02.148Z,612.00
2024-03-02T10:57:00.063Z,618.00
2024-03-02T10:58:00.161Z,615.00
2024-03-02T10:59:00.077Z,613.00
2024-03-02T11:00:00.134Z,616.00
2024-03-02T11:01:00.143Z,613.00
2024-03-02T11:02:02.487Z,616.00
2024-03-02T11:03:01.088Z,616.00
2024-03-02T11:04:00.260Z,617.00
2024-03-02T11:05:00.129Z,617.00
2024-03-02T11:06:00.130Z,619.00
2024-03-02T11:07:00.162Z,621.00
2024-03-02T11:08:00.743Z,621.00
2024-03-02T11:09:00.073Z,620.00
2024-03-02T11:10:00.292Z,620.00
2024-03-02T11:11:00.193Z,620.00
2024-03-02T11:12:00.085Z,621.00
2024-03-02T11:13:00.180Z,618.00
2024-03-02T11:14:00.129Z,620.00
2024-03-02T11:15:00.147Z,620.00
2024-03-02T11:16:00.125Z,619.00
2024-03-02T11:17:00.105Z,616.00
2024-03-02T11:18:00.152Z,616.00
2024-03-02T11:19:00.290Z,621.00
2024-03-02T11:20:00.126Z,621.00
2024-03-02T11:21:00.154Z,619.00
2024-03-02T11:22:00.296Z,620.00
2024-03-02T11:23:00.104Z,617.00
2024-03-02T11:24:00.145Z,619.00
2024-03-02T11:25:00.120Z,620.00
2024-03-02T11:26:00.135Z,616.00
2024-03-02T11:27:00.099Z,617.00
2024-03-02T11:28:00.209Z,615.00
2024-03-02T11:29:00.111Z,619.00
2024-03-02T11:30:00.182Z,618.00
2024-03-02T11:31:00.153Z,617.00
2024-03-02T11:32:00.140Z,618.00
2024-03-02T11:33:00.237Z,618.00
2024-03-02T11:34:00.269Z,615.00
2024-03-02T11:35:00.284Z,616.00
2024-03-02T11:36:00.405Z,614.00
2024-03-02T11:37:00.577Z,615.00
2024-03-02T11:38:00.517Z,616.00
2024-03-02T11:39:00.698Z,614.00
2024-03-02T11:40:00.809Z,616.00
2024-03-02T11:41:00.706Z,614.00
2024-03-02T11:42:00.805Z,616.00
2024-03-02T11:43:01.080Z,614.00
2024-03-02T11:44:00.930Z,614.00
2024-03-02T11:45:00.961Z,613.00
2024-03-02T11:46:01.075Z,613.00
2024-03-02T11:47:01.065Z,611.00
2024-03-02T11:48:01.177Z,611.00
2024-03-02T11:49:01.249Z,609.00
2024-03-02T11:50:01.173Z,611.00
2024-03-02T11:51:01.251Z,611.00
2024-03-02T11:52:01.474Z,610.00
2024-03-02T11:53:01.334Z,609.00
2024-03-02T11:54:01.399Z,611.00
2024-03-02T11:55:01.486Z,611.00
2024-03-02T11:56:01.429Z,609.00
2024-03-02T11:57:01.486Z,609.00
2024-03-02T11:58:01.545Z,607.00
2024-03-02T11:59:01.547Z,607.00
2024-03-02T12:00:01.569Z,605.00
2024-03-02T12:01:01.749Z,606.00
2024-03-02T12:02:01.684Z,603.00
2024-03-02T12:03:01.661Z,604.00
2024-03-02T12:04:01.707Z,601.00
2024-03-02T12:05:01.669Z,602.00
2024-03-02T12:06:01.727Z,602.00
2024-03-02T12:07:01.980Z,600.00
2024-03-02T12:08:01.765Z,600.00
2024-03-02T12:09:01.775Z,605.00
2024-03-02T12:10:01.960Z,604.00
2024-03-02T12:11:02.351Z,606.00
2024-03-02T12:12:01.815Z,604.00
2024-03-02T12:13:02.115Z,604.00
2024-03-02T12:14:01.840Z,604.00
2024-03-02T12:15:01.992Z,603.00
2024-03-02T12:16:01.900Z,605.00
2024-03-02T12:17:01.845Z,606.00
2024-03-02T12:18:01.957Z,607.00
2024-03-02T12:19:01.928Z,606.00
2024-03-02T12:20:01.889Z,606.00
2024-03-02T12:21:01.910Z,607.00
2024-03-02T12:22:01.968Z,606.00
2024-03-02T12:23:01.945Z,606.00
2024-03-02T12:24:01.998Z,609.00
2024-03-02T12:25:02.247Z,608.00
2024-03-02T12:26:02.094Z,610.00
2024-03-02T12:27:02.159Z,612.00
2024-03-02T12:28:02.882Z,612.00
2024-03-02T12:29:02.285Z,613.00
2024-03-02T12:30:02.375Z,614.00
2024-03-02T12:31:02.444Z,615.00
2024-03-02T12:32:02.442Z,614.00
2024-03-02T12:33:02.493Z,615.00